Greasby, United Kingdom
Current Conditions -  °F | °C
As of 9:20 AM on Friday 28 Nov 2014 (Local Time) from EGGP Reporting Station
Broken Clouds Broken Clouds  
Wind Chill: 50°   Ceiling: 1300
Heat Index: 50°   Visibility: 4mi
Dew Point: 46°   Wind: 6mph
Humidity: 87%   Direction: 50°NE
Pressure: 29.65"   Gusts: NA
Location:  53.38°N, 3.12°W
Report Text: EGGP 280920Z 05005KT 020V080 6000 BKN013 10/08 Q1004
Loading
Personal Weather Stations






























Interactive Weather Map New forecast layout! Learn more

10-Day Weather Forecast

Advertisements
Track Severe Weather on mobile